CheckWX is a tool to help pilots better visualize weather data.  It is not intended as a substitute for an official pre-flight weather briefing.

07:42:26 UTC

KOQN METAR
Brandywine Airport
West Chester, Pennsylvania, USA
Current

27 mins ago

KOQN 050715Z AUTO 00000KT 10SM SCT042 OVC048 08/06 A3004 RMK AO2
Observed
Apr-5 @ 07:15 UTC
Visibility
Flight Rules
VFR
Cloud Levels
  • Scattered at 4,200' AGL
  • Overcast at 4,800' AGL
Temperature
C / 46°F
Dewpoint
C / 43°F
Humidity
87%
Altimeter
30.04" Hg
Pressure
1017.32 hPa
Previous

47 mins ago

KOQN 050655Z AUTO 00000KT 10SM SCT043 OVC048 08/06 A3004 RMK AO2
Observed
Apr-5 @ 06:55 UTC
Visibility
Flight Rules
VFR
Cloud Levels
  • Scattered at 4,300' AGL
  • Overcast at 4,800' AGL
Temperature
C / 46°F
Dewpoint
C / 43°F
Humidity
87%
Altimeter
30.04" Hg
Pressure
1017.32 hPa
Previous

1 hour ago

KOQN 050635Z AUTO 00000KT 10SM SCT043 OVC050 09/06 A3004 RMK AO2
Observed
Apr-5 @ 06:35 UTC
Visibility
Flight Rules
VFR
Cloud Levels
  • Scattered at 4,300' AGL
  • Overcast at 5,000' AGL
Temperature
C / 48°F
Dewpoint
C / 43°F
Humidity
82%
Altimeter
30.04" Hg
Pressure
1017.32 hPa